• Join FlightAware (Why Join?)
  • Login
  • US Flag 
07:56AM EDT


 

Airport Tracker/Info


-or-


 

Live Flight TrackerFlight Track Log ✈ DAL268 ✈ 2013年 08月 29日 ✈ KJFK - LLBG / TLV

Flight Track Log - Related Links

Times and Time Zones

All times are in EDT time to prevent confusion due to time zone crossing. See the DAL268 flight status page for this flight to view local times or setup timezone preferences in your user account.

Time Position Orientation Groundspeed Altitude Reporting Facility
EDT Latitude Longitude Course Direction KTS MPH feet Rate Location/Type
12:40AM 40.6120 -73.7920 143° Southeast 70 81  Level FlightAware
12:40AM 40.6210 -73.7850 31° Northeast 140 161 360 Level FlightAware
12:40AM 40.6370 -73.7720 32° Northeast 177 204 300 780 Climbing FlightAware
12:40AM 40.6450 -73.7640 37° Northeast 181 208 500 1,500 Climbing FlightAware
12:41AM 40.6490 -73.7562 56° Northeast 181 208 800 1,320 Climbing FlightAware ADS-B
12:41AM 40.6540 -73.7130 81° East 210 242 1,600 1,140 Climbing FlightAware
12:41AM 40.6540 -73.6970 90° East 222 255 1,800 1,200 Climbing FlightAware
12:42AM 40.6540 -73.6510 90° East 236 272 2,600 900 Climbing FlightAware
12:42AM 40.6550 -73.6190 88° East 255 293 2,700 960 Climbing FlightAware
12:43AM 40.6550 -73.5730 90° East 272 313 3,400 1,920 Climbing FlightAware
12:43AM 40.6550 -73.5300 90° East 283 326 4,300 1,800 Climbing FlightAware
12:43AM 40.6560 -73.5040 87° East 296 341 4,500 780 Climbing FlightAware
12:44AM 40.6560 -73.4530 90° East 295 339 4,900 480 Climbing FlightAware
12:44AM 40.6540 -73.4140 94° East 302 348 4,900 1,140 Level FlightAware
12:45AM 40.6450 -73.3780 108° East 302 348 5,700 2,400 Climbing FlightAware
12:45AM 40.6330 -73.3440 115° Southeast 307 353 6,500 2,100 Climbing FlightAware
12:45AM 40.6230 -73.3090 111° Southeast 313 360 7,100 2,040 Climbing FlightAware
12:46AM 40.6130 -73.2760 112° Southeast 315 362 7,800 2,160 Climbing FlightAware
12:46AM 40.5980 -73.2270 112° Southeast 319 367 8,800 1,980 Climbing FlightAware
12:46AM 40.5880 -73.1910 110° East 323 372 9,400 1,680 Climbing FlightAware
12:47AM 40.5700 -73.1310 112° Southeast 338 389 10,300 1,200 Climbing FlightAware
12:48AM 40.5470 -73.0590 113° Southeast 368 423 10,800 900 Climbing FlightAware
12:48AM 40.5380 -73.0050 102° East 379 436 11,200 1,200 Climbing FlightAware
12:48AM 40.5480 -72.9450 78° East 380 437 11,800 1,320 Climbing FlightAware
12:49AM 40.5770 -72.8660 64° Northeast 398 458 12,700 1,980 Climbing FlightAware
12:50AM 40.5970 -72.7900 71° East 400 460 14,200 2,280 Climbing FlightAware
12:50AM 40.6170 -72.7060 73° East 408 470 15,400 1,980 Climbing FlightAware
12:51AM 40.6430 -72.6210 68° East 409 471 16,600 1,860 Climbing FlightAware
12:51AM 40.6800 -72.5530 54° Northeast 410 472 17,600 1,740 Climbing FlightAware
12:52AM 40.7210 -72.4850 51° Northeast 416 479 18,700 1,740 Climbing FlightAware
12:53AM 40.7740 -72.3960 52° Northeast 424 488 19,900 1,680 Climbing FlightAware
12:53AM 40.8160 -72.3280 51° Northeast 428 493 20,900 1,680 Climbing FlightAware
12:54AM 40.8630 -72.2490 52° Northeast 433 498 21,900 1,560 Climbing FlightAware
12:54AM 40.9080 -72.1730 52° Northeast 437 503 22,800 1,260 Climbing FlightAware
12:55AM 40.9540 -72.0970 51° Northeast 442 509 23,600 1,320 Climbing FlightAware
12:56AM 41.0050 -72.0110 52° Northeast 447 514 24,500 1,320 Climbing FlightAware
12:56AM 41.0450 -71.9440 52° Northeast 454 522 25,100 1,140 Climbing FlightAware
12:57AM 41.0940 -71.8600 52° Northeast 459 528 25,900 1,200 Climbing FlightAware
12:57AM 41.1410 -71.7800 52° Northeast 464 534 26,600 960 Climbing FlightAware
12:58AM 41.1900 -71.6980 52° Northeast 470 541 27,100 720 Climbing FlightAware
12:59AM 41.2350 -71.6210 52° Northeast 477 549 27,500 540 Climbing FlightAware
12:59AM 41.2770 -71.5490 52° Northeast 488 562 27,700 540 Climbing FlightAware
01:00AM 41.3330 -71.4530 52° Northeast 493 567 28,200 720 Climbing FlightAware
01:00AM 41.3780 -71.3750 52° Northeast 496 571 28,600 660 Climbing FlightAware
01:01AM 41.4260 -71.2940 52° Northeast 495 570 29,000 660 Climbing FlightAware
01:02AM 41.4750 -71.2090 52° Northeast 492 566 29,400 720 Climbing FlightAware
01:02AM 41.5300 -71.1140 52° Northeast 479 551 29,900 1,140 Climbing FlightAware
01:03AM 41.5690 -71.0470 52° Northeast 463 533 30,700 840 Climbing FlightAware
01:03AM 41.6240 -70.9510 53° Northeast 457 526 31,000 180 Climbing FlightAware
01:04AM 41.6690 -70.8720 53° Northeast 453 521 31,000  Level FlightAware
01:05AM 41.7210 -70.7830 52° Northeast 454 522 31,000  Level FlightAware
01:05AM 41.7650 -70.7030 54° Northeast 452 520 31,000  Level FlightAware
01:06AM 41.8110 -70.6220 53° Northeast 451 519 31,000  Level FlightAware
01:07AM 41.8660 -70.5260 52° Northeast 451 519 31,000  Level FlightAware
01:07AM 41.9170 -70.4350 53° Northeast 452 520 31,000  Level FlightAware
01:08AM 41.9570 -70.3630 53° Northeast 452 520 31,000  Level FlightAware
01:08AM 42.0060 -70.2780 52° Northeast 452 520 31,000  Level FlightAware
01:09AM 42.0580 -70.1840 53° Northeast 453 521 31,000  Level FlightAware
01:10AM 42.0900 -70.1270 53° Northeast 452 520 31,000  Level FlightAware
01:10AM 42.1340 -70.0480 53° Northeast 452 520 31,000  Level FlightAware
01:11AM 42.1840 -69.9590 53° Northeast 452 520 31,000  Level FlightAware
01:11AM 42.2320 -69.8730 53° Northeast 452 520 31,000  Level FlightAware
01:12AM 42.2790 -69.7870 54° Northeast 447 514 31,000  Level FlightAware
01:13AM 42.3330 -69.6890 53° Northeast 447 514 31,000  Level FlightAware
01:13AM 42.3870 -69.5910 53° Northeast 447 514 31,000  Level FlightAware
01:14AM 42.4400 -69.4940 53° Northeast 448 516 31,000  Level FlightAware
01:15AM 42.4870 -69.4070 54° Northeast 448 516 31,000  Level FlightAware
01:15AM 42.5330 -69.3230 53° Northeast 448 516 31,000  Level FlightAware
01:16AM 42.5740 -69.2470 54° Northeast 448 516 31,000  Level FlightAware
01:17AM 42.6120 -69.1760 54° Northeast 448 516 31,000  Level FlightAware
01:17AM 42.6730 -69.0660 53° Northeast 448 516 31,000  Level FlightAware
01:18AM 42.7110 -68.9950 54° Northeast 448 516 31,000  Level FlightAware
01:18AM 42.7570 -68.9090 54° Northeast 448 516 31,000  Level FlightAware
01:19AM 42.8130 -68.8040 54° Northeast 447 514 31,000  Level FlightAware
01:20AM 42.8510 -68.7330 54° Northeast 448 516 31,000  Level FlightAware
01:20AM 42.8890 -68.6600 55° Northeast 448 516 31,000  Level FlightAware
01:21AM 42.9440 -68.5590 53° Northeast 448 516 31,000  Level FlightAware
01:21AM 42.9750 -68.4970 56° Northeast 448 516 31,000  Level FlightAware
01:22AM 43.0120 -68.4260 55° Northeast 448 516 31,000  Level FlightAware
01:23AM 43.0480 -68.3550 55° Northeast 448 516 31,000  Level FlightAware
01:23AM 43.0850 -68.2820 55° Northeast 448 516 31,000  Level FlightAware
01:24AM 43.1230 -68.2090 54° Northeast 448 516 31,000  Level FlightAware
01:25AM 43.1610 -68.1340 55° Northeast 448 516 31,000  Level FlightAware
01:25AM 43.1990 -68.0600 55° Northeast 448 516 31,000  Level FlightAware
01:26AM 43.2350 -67.9890 55° Northeast 448 516 31,000  Level FlightAware
01:26AM 43.2730 -67.9140 55° Northeast 448 516 31,000  Level FlightAware
01:27AM 43.3100 -67.8420 55° Northeast 448 516 31,000  Level FlightAware
01:28AM 43.4300 -67.6270 52° Northeast 450 518 31,000  Level FlightAware
01:28AM 43.4710 -67.5460 55° Northeast 451 519 31,000  Level FlightAware
01:29AM 43.5140 -67.4640 54° Northeast 452 520 31,000  Level FlightAware
01:29AM 43.5560 -67.3790 56° Northeast 455 524 31,000  Level FlightAware
01:30AM 43.5980 -67.2960 55° Northeast 459 528 31,000  Level FlightAware
01:30AM 43.6410 -67.2120 55° Northeast 460 529 31,000  Level FlightAware
01:31AM 43.6850 -67.1260 55° Northeast 464 534 31,000  Level FlightAware
01:32AM 43.7280 -67.0400 55° Northeast 466 536 31,000  Level FlightAware
01:32AM 43.7720 -66.9540 55° Northeast 467 537 31,000  Level FlightAware
01:33AM 43.8160 -66.8650 56° Northeast 469 540 31,000  Level FlightAware
01:33AM 43.8600 -66.7770 55° Northeast 469 540 31,000  Level FlightAware
01:34AM 43.9100 -66.6770 55° Northeast 474 545 31,000  Level FlightAware
01:35AM 43.9540 -66.5870 56° Northeast 485 558 31,000  Level FlightAware
01:35AM 43.9970 -66.5000 55° Northeast 491 565 31,000  Level FlightAware
01:36AM 44.0430 -66.4050 56° Northeast 494 568 31,000  Level FlightAware
01:36AM 44.0880 -66.3130 56° Northeast 499 574 31,000 240 Level FlightAware
01:37AM 44.1360 -66.2170 55° Northeast 511 588 31,300 600 Climbing FlightAware
01:38AM 44.1800 -66.1260 56° Northeast 514 592 31,700 480 Climbing FlightAware
01:38AM 44.2290 -66.0260 56° Northeast 523 602 31,900 480 Climbing FlightAware
01:39AM 44.2770 -65.9260 56° Northeast 522 601 32,300 720 Climbing FlightAware
01:39AM 44.3280 -65.8200 56° Northeast 525 604 32,800 600 Climbing FlightAware
01:40AM 44.3700 -65.7340 56° Northeast 527 606 33,000 120 Climbing FlightAware
01:41AM 44.4270 -65.6160 56° Northeast 527 606 33,000  Level FlightAware
01:41AM 44.4670 -65.5330 56° Northeast 528 608 33,000  Level FlightAware
01:42AM 44.5150 -65.4320 56° Northeast 530 610 33,000  Level FlightAware
01:42AM 44.5660 -65.3260 56° Northeast 532 612 33,000  Level FlightAware
01:43AM 44.6140 -65.2240 57° Northeast 534 615 33,000  Level FlightAware
01:43AM 44.6650 -65.1180 56° Northeast 541 623 33,000  Level FlightAware
01:44AM 44.7130 -65.0150 57° Northeast 545 627 33,000  Level FlightAware
01:45AM 44.7770 -64.8810 56° Northeast 551 634 33,000  Level FlightAware
01:45AM 44.8150 -64.7990 57° Northeast 554 638 33,000  Level FlightAware
01:46AM 44.8640 -64.6960 56° Northeast 557 641 33,000  Level FlightAware
01:46AM 44.9190 -64.5790 56° Northeast 560 644 33,000  Level FlightAware
01:47AM 44.9700 -64.4700 56° Northeast 561 646 33,000  Level FlightAware
01:48AM 45.0140 -64.3750 57° Northeast 563 648 33,000  Level FlightAware
01:48AM 45.0710 -64.2510 57° Northeast 562 647 33,000  Level FlightAware
01:49AM 45.1200 -64.1440 57° Northeast 563 648 33,000  Level FlightAware
01:49AM 45.1690 -64.0360 57° Northeast 563 648 33,000  Level FlightAware
01:50AM 45.2220 -63.9200 57° Northeast 564 649 33,000  Level FlightAware
01:51AM 45.2670 -63.8210 57° Northeast 565 650 33,000 -120 Level FlightAware
01:51AM 45.3410 -63.6590 57° Northeast 569 655 32,900  Descending FlightAware
01:52AM 45.3860 -63.5590 57° Northeast 569 655 33,000 60 Climbing FlightAware
01:53AM 45.4320 -63.4580 57° Northeast 571 657 33,000  Level FlightAware
01:53AM 45.4930 -63.3220 57° Northeast 573 659 33,000  Level FlightAware
01:54AM 45.5470 -63.2010 57° Northeast 573 659 33,000  Level FlightAware
01:55AM 45.5900 -63.1030 58° Northeast 573 659 33,000  Level FlightAware
01:55AM 45.6330 -63.0050 58° Northeast 573 659 33,000  Level FlightAware
01:56AM 45.6760 -62.9060 58° Northeast 573 659 33,000  Level FlightAware
01:56AM 45.7200 -62.8050 58° Northeast 573 659 33,000  Level FlightAware
01:57AM 45.7630 -62.7070 58° Northeast 573 659 33,000  Level FlightAware
01:58AM 45.8060 -62.6080 58° Northeast 573 659 33,000  Level FlightAware
01:58AM 45.8500 -62.5060 58° Northeast 573 659 33,000  Level FlightAware
01:59AM 45.8940 -62.4050 58° Northeast 573 659 33,000  Level FlightAware
01:59AM 46.0140 -62.1280 58° Northeast 532 612 33,000  Level FlightAware
02:00AM 46.0620 -62.0180 58° Northeast 532 612 33,000 -300 Level FlightAware
02:01AM 46.1070 -61.9130 58° Northeast 531 611 32,700 -900 Descending FlightAware
02:01AM 46.1500 -61.8100 59° Northeast 530 610 32,000 -1,320 Descending FlightAware
02:02AM 46.1960 -61.7020 58° Northeast 523 602 31,200 -900 Descending FlightAware
02:02AM 46.2360 -61.6070 59° Northeast 521 600 31,000 -240 Descending FlightAware
02:03AM 46.2790 -61.5040 59° Northeast 529 609 31,000  Level FlightAware
02:04AM 46.3240 -61.3970 59° Northeast 533 613 31,000  Level FlightAware
02:04AM 46.3700 -61.2860 59° Northeast 536 617 31,000  Level FlightAware
02:05AM 46.4140 -61.1810 59° Northeast 536 617 31,000  Level FlightAware
02:05AM 46.4610 -61.0680 59° Northeast 532 612 31,000  Level FlightAware
02:06AM 46.5050 -60.9600 59° Northeast 525 604 31,000 -300 Level FlightAware
02:06AM 46.5500 -60.8500 59° Northeast 522 601 30,700 -1,020 Descending FlightAware
02:07AM 46.5880 -60.7550 60° Northeast 522 601 29,900 -1,620 Descending FlightAware
02:08AM 46.6300 -60.6510 60° Northeast 521 600 29,000 -780 Descending FlightAware
02:08AM 46.6760 -60.5360 60° Northeast 517 595 29,000  Level FlightAware
02:09AM 46.7190 -60.4290 60° Northeast 516 594 29,000  Level FlightAware
02:09AM 46.7580 -60.3310 60° Northeast 514 592 29,000  Level FlightAware
02:10AM 46.8000 -60.2260 60° Northeast 512 589 29,000  Level FlightAware
02:11AM 46.8430 -60.1190 60° Northeast 513 590 29,000  Level FlightAware
02:11AM 46.8960 -59.9870 60° Northeast 515 593 29,000  Level FlightAware
02:12AM 46.9330 -59.8950 59° Northeast 517 595 29,000  Level FlightAware
02:12AM 46.9800 -59.7750 60° Northeast 519 597 29,000  Level FlightAware
02:13AM 47.0220 -59.6680 60° Northeast 519 597 29,000  Level FlightAware
02:14AM 47.0810 -59.5190 60° Northeast 518 596 29,000  Level FlightAware
02:14AM 47.1220 -59.4150 60° Northeast 518 596 29,000  Level FlightAware
02:15AM 47.1590 -59.3190 60° Northeast 518 596 29,000  Level FlightAware
02:16AM 47.1970 -59.2230 60° Northeast 518 596 29,000  Level FlightAware
02:16AM 47.2350 -59.1270 60° Northeast 518 596 29,000  Level FlightAware
02:17AM 47.2730 -59.0310 60° Northeast 518 596 29,000  Level FlightAware
02:18AM 47.3090 -58.9370 61° Northeast 518 596 29,000  Level FlightAware
02:18AM 47.4100 -58.6710 61° Northeast 538 619 29,000  Level FlightAware
02:19AM 47.4490 -58.5650 61° Northeast 543 625 29,000  Level FlightAware
02:20AM 47.4950 -58.4430 61° Northeast 544 626 29,000 240 Level FlightAware
02:20AM 47.5370 -58.3270 62° Northeast 549 632 29,300 660 Climbing FlightAware
02:21AM 47.5790 -58.2020 63° Northeast 559 643 29,800 900 Climbing FlightAware
02:21AM 47.6190 -58.0830 63° Northeast 561 646 30,400 1,200 Climbing FlightAware
02:22AM 47.6600 -57.9630 63° Northeast 561 646 31,200 1,560 Climbing FlightAware
02:22AM 47.7000 -57.8430 64° Northeast 553 636 32,200 1,500 Climbing FlightAware
02:23AM 47.7380 -57.7300 63° Northeast 544 626 33,000 600 Climbing FlightAware
02:24AM 47.7840 -57.5940 63° Northeast 542 624 33,000  Level FlightAware
02:24AM 47.8230 -57.4760 64° Northeast 541 623 33,000  Level FlightAware
02:25AM 47.8600 -57.3640 64° Northeast 540 621 33,000  Level FlightAware
02:25AM 47.8980 -57.2500 64° Northeast 540 621 33,000  Level FlightAware
02:26AM 47.9370 -57.1290 64° Northeast 540 621 33,000  Level FlightAware
02:27AM 47.9770 -57.0080 64° Northeast 539 620 33,000  Level FlightAware
02:27AM 48.0190 -56.8780 64° Northeast 539 620 33,000  Level FlightAware
02:28AM 48.0520 -56.7750 64° Northeast 539 620 33,000  Level FlightAware
02:28AM 48.0870 -56.6650 64° Northeast 539 620 33,000  Level FlightAware
02:29AM 48.1330 -56.5200 65° Northeast 539 620 33,000  Level FlightAware
02:30AM 48.1650 -56.4190 65° Northeast 540 621 33,000  Level FlightAware
02:30AM 48.2030 -56.3010 64° Northeast 542 624 33,000  Level FlightAware
02:31AM 48.2460 -56.1660 64° Northeast 543 625 33,000  Level FlightAware
02:31AM 48.2780 -56.0630 65° Northeast 543 625 33,000  Level FlightAware
02:32AM 48.3150 -55.9440 65° Northeast 545 627 33,000  Level FlightAware
02:32AM 48.3520 -55.8230 65° Northeast 545 627 33,000  Level FlightAware
02:33AM 48.3880 -55.7060 65° Northeast 543 625 33,000  Level FlightAware
02:34AM 48.4260 -55.5810 65° Northeast 543 625 33,000  Level FlightAware
02:34AM 48.4610 -55.4650 65° Northeast 543 625 33,000  Level FlightAware
02:35AM 48.4990 -55.3410 65° Northeast 544 626 33,000  Level FlightAware
02:35AM 48.5340 -55.2240 66° East 545 627 33,000  Level FlightAware
02:36AM 48.5760 -55.0830 66° East 546 628 33,000  Level FlightAware
02:37AM 48.6080 -54.9770 65° Northeast 547 629 33,000  Level FlightAware
02:37AM 48.6440 -54.8560 66° East 548 631 33,000  Level FlightAware
02:38AM 48.6800 -54.7330 66° East 546 628 33,000  Level FlightAware
02:38AM 48.7210 -54.5950 66° East 545 627 33,000  Level FlightAware
02:39AM 48.7520 -54.4890 66° East 544 626 33,000  Level FlightAware
02:39AM 48.7870 -54.3660 67° East 543 625 33,000  Level FlightAware
02:40AM 48.8220 -54.2450 66° East 543 625 33,000  Level FlightAware
02:41AM 48.8570 -54.1240 66° East 542 624 33,000  Level FlightAware
02:41AM 48.8930 -53.9990 66° East 542 624 33,000  Level FlightAware
02:42AM 48.9260 -53.8810 67° East 543 625 33,000  Level FlightAware
02:42AM 48.9670 -53.7390 66° East 542 624 33,000  Level FlightAware
02:43AM 48.9960 -53.6350 67° East 542 624 33,000  Level FlightAware
02:44AM 49.0360 -53.4950 66° East 542 624 33,000  Level FlightAware
02:44AM 49.0650 -53.3890 67° East 541 623 33,000  Level FlightAware
02:45AM 49.1040 -53.2480 67° East 541 623 33,000  Level FlightAware
02:45AM 49.1320 -53.1460 67° East 540 621 33,000  Level FlightAware
02:46AM 49.1650 -53.0270 67° East 540 621 33,000  Level FlightAware
02:47AM 49.2020 -52.8900 67° East 550 633 33,000  Level FlightAware
02:47AM 49.2390 -52.7550 67° East 552 635 33,000  Level FlightAware
02:48AM 49.2770 -52.6130 68° East 552 635 33,000  Level FlightAware
02:48AM 49.3110 -52.4840 68° East 551 634 33,000  Level FlightAware
02:49AM 49.3510 -52.3340 68° East 553 636 33,000  Level FlightAware
02:50AM 49.3840 -52.2020 69° East 551 634 33,000  Level FlightAware
02:50AM 49.4250 -52.0470 68° East 553 636 33,000  Level FlightAware
02:51AM 49.4590 -51.9190 68° East 555 639 33,000  Level FlightAware
02:52AM 49.4930 -51.7880 68° East 555 639 33,000  Level FlightAware
02:52AM 49.5220 -51.6710 69° East 555 639 33,000  Level FlightAware
02:53AM 49.5500 -51.5580 69° East 555 639 33,000  Level FlightAware
02:53AM 49.5790 -51.4420 69° East 555 639 33,000  Level FlightAware
02:54AM 49.6070 -51.3290 69° East 555 639 33,000  Level FlightAware
02:55AM 49.6350 -51.2160 69° East 555 639 33,000  Level FlightAware
02:55AM 49.6640 -51.0990 69° East 555 639 33,000  Level FlightAware
02:56AM 49.6930 -50.9830 69° East 555 639 33,000  Level FlightAware
02:56AM 49.7210 -50.8690 69° East 555 639 33,000  Level FlightAware
02:57AM 49.7490 -50.7560 69° East 555 639 33,000  Level FlightAware
02:58AM 49.8450 -50.3860 68° East 568 654 33,000  Level FlightAware
02:58AM 49.8720 -50.2760 69° East 568 654 33,000  Level FlightAware
02:59AM 49.9020 -50.1560 69° East 568 654 33,000  Level FlightAware
03:00AM 49.9310 -50.0360 69° East 568 654 33,000  Level FlightAware
03:00AM 49.9600 -49.9190 69° East 568 654 33,000  Level FlightAware
03:01AM 49.9890 -49.8020 69° East 568 654 33,000  Level FlightAware
03:01AM 50.0180 -49.6860 69° East 568 654 33,000  Level FlightAware
03:02AM 50.0450 -49.5750 69° East 568 654 33,000  Level FlightAware
03:03AM 50.0830 -49.4230 69° East 568 654 33,000  Level FlightAware
03:03AM 50.0000 -50.0000 77° East 564 649 33,000  Level ETMS Enhanced Traffic Management System
03:03AM 50.1110 -49.3060 69° East 568 654 33,000  Level FlightAware
03:04AM 50.1400 -49.1880 69° East 568 654 33,000  Level FlightAware
03:04AM 50.1667 -48.6667 77° East 570 656 33,000  Level Gander Center
03:05AM 50.1700 -49.0680 69° East 568 654 33,000  Level FlightAware
03:05AM 50.2010 -48.9410 69° East 568 654 33,000  Level FlightAware
03:05AM 50.1833 -48.4500 83° East 570 656 33,000  Level Gander Center
03:06AM 50.2300 -48.8240 69° East 568 654 33,000  Level FlightAware
03:06AM 50.2167 -48.1667 79° East 570 656 33,000  Level Gander Center
03:06AM 50.2590 -48.7060 69° East 568 654 33,000  Level FlightAware
03:07AM 50.2880 -48.5860 69° East 568 654 33,000  Level FlightAware
03:07AM 50.2500 -47.9500 76° East 560 644 33,000  Level Gander Center
03:09AM 50.2804 -47.7145 78° East  Level FlightAware Approximate
03:16AM 50.4670 -46.1729 79° East  Level FlightAware Approximate
03:17AM 50.4920 -45.9516 80° East  Level FlightAware Approximate
03:18AM 50.5166 -45.7302 80° East  Level FlightAware Approximate
03:19AM 50.5407 -45.5085 80° East  Level FlightAware Approximate
03:20AM 50.5645 -45.2867 80° East  Level FlightAware Approximate
03:21AM 50.5878 -45.0645 81° East  Level FlightAware Approximate
03:22AM 50.6106 -44.8422 81° East  Level FlightAware Approximate
03:23AM 50.6331 -44.6197 81° East  Level FlightAware Approximate
03:24AM 50.6551 -44.3969 81° East  Level FlightAware Approximate
03:25AM 50.6768 -44.1739 81° East  Level FlightAware Approximate
03:26AM 50.6979 -43.9507 81° East  Level FlightAware Approximate
03:27AM 50.7187 -43.7274 82° East  Level FlightAware Approximate
03:28AM 50.7390 -43.5038 82° East  Level FlightAware Approximate
03:29AM 50.7589 -43.2800 82° East  Level FlightAware Approximate
03:30AM 50.7784 -43.0561 82° East  Level FlightAware Approximate
03:31AM 50.7974 -42.8320 82° East  Level FlightAware Approximate
03:32AM 50.8160 -42.6077 82° East  Level FlightAware Approximate
03:33AM 50.8342 -42.3832 83° East  Level FlightAware Approximate
03:34AM 50.8520 -42.1585 83° East  Level FlightAware Approximate
03:35AM 50.8693 -41.9337 83° East  Level FlightAware Approximate
03:36AM 50.8862 -41.7087 83° East  Level FlightAware Approximate
03:37AM 50.9026 -41.4835 83° East  Level FlightAware Approximate
03:38AM 50.9187 -41.2582 83° East  Level FlightAware Approximate
03:39AM 50.9342 -41.0327 84° East  Level FlightAware Approximate
03:40AM 50.9494 -40.8071 84° East  Level FlightAware Approximate
03:41AM 50.9641 -40.5814 84° East  Level FlightAware Approximate
03:42AM 50.9784 -40.3555 84° East  Level FlightAware Approximate
03:42AM 51.0000 -40.0000 77° East 539 620 33,000  Level ETMS Enhanced Traffic Management System
03:43AM 50.9923 -40.1294 84° East  Level FlightAware Approximate
03:44AM 51.0135 -39.9031 77° East  Level FlightAware Approximate
03:45AM 51.0445 -39.6783 78° East  Level FlightAware Approximate
03:46AM 51.0751 -39.4533 78° East  Level FlightAware Approximate
03:47AM 51.1052 -39.2280 78° East  Level FlightAware Approximate
03:48AM 51.2555 -38.1318 78° East 539 620 33,000  Level FlightAware Transoceanic
03:49AM 51.2853 -37.8968 79° East 539 620 33,000  Level FlightAware Transoceanic
03:50AM 51.3147 -37.6616 79° East 539 620 33,000  Level FlightAware Transoceanic
03:51AM 51.3436 -37.4260 79° East 539 620 33,000  Level FlightAware Transoceanic
03:52AM 51.3720 -37.1902 79° East 539 620 33,000  Level FlightAware Transoceanic
03:53AM 51.4000 -36.9540 79° East 539 620 33,000  Level FlightAware Transoceanic
03:54AM 51.4274 -36.7176 80° East 539 620 33,000  Level FlightAware Transoceanic
03:55AM 51.4544 -36.4809 80° East 539 620 33,000  Level FlightAware Transoceanic
03:56AM 51.4810 -36.2439 80° East 539 620 33,000  Level FlightAware Transoceanic
03:57AM 51.5070 -36.0067 80° East 539 620 33,000  Level FlightAware Transoceanic
03:58AM 51.5326 -35.7691 80° East 539 620 33,000  Level FlightAware Transoceanic
03:59AM 51.5577 -35.5313 80° East 539 620 33,000  Level FlightAware Transoceanic
04:00AM 51.5822 -35.2933 81° East 539 620 33,000  Level FlightAware Transoceanic
04:01AM 51.6064 -35.0550 81° East 539 620 33,000  Level FlightAware Transoceanic
04:02AM 51.6300 -34.8164 81° East 539 620 33,000  Level FlightAware Transoceanic
04:03AM 51.6531 -34.5776 81° East 539 620 33,000  Level FlightAware Transoceanic
04:04AM 51.6758 -34.3386 81° East 539 620 33,000  Level FlightAware Transoceanic
04:05AM 51.6980 -34.0993 82° East 539 620 33,000  Level FlightAware Transoceanic
04:06AM 51.7197 -33.8598 82° East 539 620 33,000  Level FlightAware Transoceanic
04:07AM 51.7409 -33.6201 82° East 539 620 33,000  Level FlightAware Transoceanic
04:08AM 51.7616 -33.3801 82° East 539 620 33,000  Level FlightAware Transoceanic
04:09AM 51.7818 -33.1399 82° East 539 620 33,000  Level FlightAware Transoceanic
04:10AM 51.8016 -32.8995 83° East 539 620 33,000  Level FlightAware Transoceanic
04:11AM 51.8208 -32.6589 83° East 539 620 33,000  Level FlightAware Transoceanic
04:12AM 51.8396 -32.4181 83° East 539 620 33,000  Level FlightAware Transoceanic
04:13AM 51.8579 -32.1771 83° East 539 620 33,000  Level FlightAware Transoceanic
04:14AM 51.8756 -31.9359 83° East 539 620 33,000  Level FlightAware Transoceanic
04:15AM 51.8929 -31.6945 83° East 539 620 33,000  Level FlightAware Transoceanic
04:16AM 51.9097 -31.4530 84° East 539 620 33,000  Level FlightAware Transoceanic
04:17AM 51.9260 -31.2112 84° East 539 620 33,000  Level FlightAware Transoceanic
04:18AM 51.9418 -30.9693 84° East 539 620 33,000  Level FlightAware Transoceanic
04:19AM 51.9571 -30.7272 84° East 539 620 33,000  Level FlightAware Transoceanic
04:20AM 51.9719 -30.4850 84° East 539 620 33,000  Level FlightAware Transoceanic
04:21AM 51.9862 -30.2426 85° East 539 620 33,000  Level FlightAware Transoceanic
04:21AM 52.0000 -30.0000 86° East 527 606 33,000  Level ETMS Enhanced Traffic Management System
04:22AM 51.9995 -30.0086 85° East  Level FlightAware Approximate
04:23AM 52.0124 -29.7740 85° East  Level FlightAware Approximate
04:24AM 52.0087 -29.7817 86° East  Level FlightAware Approximate
04:25AM 52.0176 -29.5467 86° East  Level FlightAware Approximate
04:26AM 52.0261 -29.3115 87° East  Level FlightAware Approximate
04:27AM 52.0653 -28.0983 88° East 527 606 33,000  Level FlightAware Transoceanic
04:28AM 52.0713 -27.8602 88° East 527 606 33,000  Level FlightAware Transoceanic
04:29AM 52.0768 -27.6220 88° East 527 606 33,000  Level FlightAware Transoceanic
04:30AM 52.0819 -27.3839 88° East 527 606 33,000  Level FlightAware Transoceanic
04:31AM 52.0864 -27.1456 88° East 527 606 33,000  Level FlightAware Transoceanic
04:32AM 52.0905 -26.9073 88° East 527 606 33,000  Level FlightAware Transoceanic
04:33AM 52.0941 -26.6690 89° East 527 606 33,000  Level FlightAware Transoceanic
04:34AM 52.0973 -26.4307 89° East 527 606 33,000  Level FlightAware Transoceanic
04:35AM 52.0999 -26.1922 89° East 527 606 33,000  Level FlightAware Transoceanic
04:36AM 52.1021 -25.9538 89° East 527 606 33,000  Level FlightAware Transoceanic
04:37AM 52.1038 -25.7154 89° East 527 606 33,000  Level FlightAware Transoceanic
04:38AM 52.1050 -25.4769 90° East 527 606 33,000  Level FlightAware Transoceanic
04:39AM 52.1057 -25.2385 90° East 527 606 33,000  Level FlightAware Transoceanic
04:40AM 52.1059 -25.0000 90° East 527 606 33,000  Level FlightAware Transoceanic
04:41AM 52.1057 -24.7615 90° East 527 606 33,000  Level FlightAware Transoceanic
04:42AM 52.1050 -24.5231 90° East 527 606 33,000  Level FlightAware Transoceanic
04:43AM 52.1038 -24.2846 91° East 527 606 33,000  Level FlightAware Transoceanic
04:44AM 52.1021 -24.0462 91° East 527 606 33,000  Level FlightAware Transoceanic
04:45AM 52.0999 -23.8078 91° East 527 606 33,000  Level FlightAware Transoceanic
04:46AM 52.0973 -23.5693 91° East 527 606 33,000  Level FlightAware Transoceanic
04:47AM 52.0941 -23.3310 91° East 527 606 33,000  Level FlightAware Transoceanic
04:48AM 52.0905 -23.0927 92° East 527 606 33,000  Level FlightAware Transoceanic
04:49AM 52.0864 -22.8544 92° East 527 606 33,000  Level FlightAware Transoceanic
04:50AM 52.0819 -22.6161 92° East 527 606 33,000  Level FlightAware Transoceanic
04:51AM 52.0768 -22.3780 92° East 527 606 33,000  Level FlightAware Transoceanic
04:52AM 52.0713 -22.1398 92° East 527 606 33,000  Level FlightAware Transoceanic
04:53AM 52.0653 -21.9017 92° East 527 606 33,000  Level FlightAware Transoceanic
04:54AM 52.0588 -21.6637 93° East 527 606 33,000  Level FlightAware Transoceanic
04:55AM 52.0518 -21.4258 93° East 527 606 33,000  Level FlightAware Transoceanic
04:56AM 52.0444 -21.1880 93° East 527 606 33,000  Level FlightAware Transoceanic
04:57AM 52.0365 -20.9502 93° East 527 606 33,000  Level FlightAware Transoceanic
04:58AM 52.0281 -20.7125 93° East 527 606 33,000  Level FlightAware Transoceanic
04:59AM 52.0192 -20.4749 94° East 527 606 33,000  Level FlightAware Transoceanic
05:00AM 52.0098 -20.2374 94° East 527 606 33,000  Level FlightAware Transoceanic
05:01AM 52.0001 -20.0024 94° East  Level FlightAware Approximate
05:02AM 51.9902 -19.7675 94° East  Level FlightAware Approximate
05:03AM 52.0085 -19.7705 86° East  Level FlightAware Approximate
05:04AM 52.0167 -19.5358 87° East  Level FlightAware Approximate
05:05AM 52.0244 -19.3010 87° East  Level FlightAware Approximate
05:06AM 52.0317 -19.0661 87° East  Level FlightAware Approximate
05:07AM 52.0385 -18.8312 87° East  Level FlightAware Approximate
05:08AM 52.0448 -18.5961 87° East  Level FlightAware Approximate
05:09AM 52.0507 -18.3610 88° East  Level FlightAware Approximate
05:10AM 52.0561 -18.1259 88° East  Level FlightAware Approximate
05:11AM 52.0610 -17.8907 88° East  Level FlightAware Approximate
05:12AM 52.0655 -17.6554 88° East  Level FlightAware Approximate
05:13AM 52.0695 -17.4201 88° East  Level FlightAware Approximate
05:14AM 52.0730 -17.1848 89° East  Level FlightAware Approximate
05:15AM 52.0760 -16.9494 89° East  Level FlightAware Approximate
05:16AM 52.0786 -16.7140 89° East  Level FlightAware Approximate
05:17AM 52.0808 -16.4786 89° East  Level FlightAware Approximate
05:18AM 52.0824 -16.2431 89° East  Level FlightAware Approximate
05:19AM 52.0836 -16.0077 89° East  Level FlightAware Approximate
05:20AM 52.0843 -15.7722 90° East  Level FlightAware Approximate
05:21AM 52.0845 -15.5359 90° East  Level FlightAware Approximate
05:22AM 52.0843 -15.2996 90° East  Level FlightAware Approximate
05:23AM 52.0836 -15.0633 90° East  Level FlightAware Approximate
05:24AM 52.0829 -14.8270 90° East  Level FlightAware Approximate
05:25AM 52.0819 -14.5907 90° East  Level FlightAware Approximate
05:26AM 52.0805 -14.3545 90° East  Level FlightAware Approximate
05:27AM 52.0786 -14.1182 91° East  Level FlightAware Approximate
05:28AM 52.0762 -13.8820 91° East  Level FlightAware Approximate
05:29AM 52.0733 -13.6458 91° East  Level FlightAware Approximate
05:29AM 51.9440 -12.0040 91° East 549 632 33,000  Level FlightAware
05:30AM 52.0700 -13.4096 91° East  Level FlightAware Approximate
05:30AM 51.9420 -11.8570 91° East 549 632 33,000  Level FlightAware
05:30AM 51.9400 -11.7380 92° East 549 632 33,000  Level FlightAware
05:31AM 51.9390 -11.5420 90° East 549 632 33,000  Level FlightAware
05:32AM 51.9390 -11.4130 90° East 549 632 33,000  Level FlightAware
05:33AM 51.9320 -11.2310 93° East 549 632 33,000  Level FlightAware
05:33AM 51.9300 -11.0890 91° East 548 631 33,000  Level FlightAware
05:34AM 51.9270 -10.9500 92° East 547 629 33,000  Level FlightAware
05:34AM 51.9250 -10.7940 91° East 547 629 33,000  Level FlightAware
05:35AM 51.9190 -10.6120 93° East 503 579 33,000  Level FlightAware
05:36AM 51.9150 -10.4150 92° East 528 608 33,000  Level FlightAware
05:36AM 51.9110 -10.2750 93° East 527 606 33,000 420 Level FlightAware
05:37AM 51.9070 -10.1380 93° East 527 606 33,500 900 Climbing FlightAware
05:38AM 51.9030 -10.0000 93° East 531 611 34,100 1,080 Climbing FlightAware
05:38AM 51.8990 -9.8600 93° East 533 613 34,800 720 Climbing FlightAware
05:39AM 51.8950 -9.7180 93° East 536 617 35,000 120 Climbing FlightAware
05:39AM 51.8900 -9.5750 93° East 533 613 35,000  Level FlightAware
05:40AM 51.8850 -9.4380 93° East 535 616 35,000  Level FlightAware
05:41AM 51.8790 -9.2760 93° East 534 615 35,000  Level FlightAware
05:41AM 51.8740 -9.1400 93° East 533 613 35,000  Level FlightAware
05:42AM 51.8690 -9.0010 93° East 532 612 35,000  Level FlightAware
05:42AM 51.8630 -8.8630 94° East 530 610 35,000  Level FlightAware
05:43AM 51.8842 -8.4961 94° East 494 568 35,000  Level FlightAware UK
05:43AM 51.8580 -8.7220 94° East 527 606 35,000  Level FlightAware
05:44AM 51.8520 -8.5800 94° East 525 604 35,000  Level FlightAware
05:44AM 51.8460 -8.4560 94° East 526 605 35,000  Level FlightAware
05:45AM 51.8400 -8.3280 94° East 524 603 35,000  Level FlightAware
05:45AM 51.8330 -8.1690 94° East 525 604 35,000  Level FlightAware
05:46AM 51.8515 -7.7937 94° East 490 564 35,000  Level FlightAware UK
05:46AM 51.8250 -8.0180 94° East 525 604 35,000  Level FlightAware
05:46AM 51.8452 -7.6770 94° East 488 562 35,000  Level FlightAware UK
05:47AM 51.8180 -7.8750 94° East 526 605 35,000  Level FlightAware
05:47AM 51.8100 -7.7160 95° East 525 604 35,000  Level FlightAware
05:48AM 51.8030 -7.5920 95° East 524 603 35,000  Level FlightAware
05:48AM 51.7950 -7.4420 95° East 526 605 35,000  Level FlightAware
05:49AM 51.7880 -7.3130 95° East 526 605 35,000  Level FlightAware
05:50AM 51.7800 -7.1740 95° East 526 605 35,000  Level FlightAware
05:50AM 51.7730 -7.0440 95° East 525 604 35,000  Level FlightAware
05:50AM 51.7950 -6.8133 95° East 494 568 35,000  Level FlightAware UK
05:51AM 51.7879 -6.6968 95° East 494 568 35,000  Level FlightAware UK
05:51AM 51.7640 -6.9040 95° East 525 604 35,000  Level FlightAware
05:51AM 51.7560 -6.7630 95° East 524 603 35,000  Level FlightAware
05:52AM 51.7510 -6.6380 94° East 523 602 35,000  Level FlightAware
05:52AM 51.7460 -6.4970 93° East 523 602 35,000  Level FlightAware
05:53AM 51.7410 -6.3560 93° East 523 602 35,000  Level FlightAware
05:54AM 51.7360 -6.2320 94° East 523 602 35,000  Level FlightAware
05:54AM 51.7310 -6.0910 93° East 523 602 35,000  Level FlightAware
05:55AM 51.7482 -5.7414 93° East 492 566 35,000  Level FlightAware UK
05:55AM 51.7250 -5.9500 93° East 523 602 35,000  Level FlightAware
05:55AM 51.7200 -5.8100 93° East 523 602 35,000  Level FlightAware
05:56AM 51.7150 -5.6810 94° East 523 602 35,000  Level FlightAware
05:57AM 51.7090 -5.5400 94° East 523 602 35,000  Level FlightAware
05:57AM 51.7030 -5.4170 94° East 523 602 35,000  Level FlightAware
05:58AM 51.6970 -5.2770 94° East 522 601 35,000  Level FlightAware
05:58AM 51.6900 -5.1290 94° East 522 601 35,000  Level FlightAware
05:59AM 51.6840 -4.9970 94° East 521 600 35,000  Level FlightAware
05:59AM 51.6780 -4.8690 94° East 521 600 35,000  Level FlightAware
06:00AM 51.6710 -4.7350 95° East 520 598 35,000  Level FlightAware
06:01AM 51.6640 -4.6040 95° East 520 598 35,000  Level FlightAware
06:01AM 51.6570 -4.4670 95° East 520 598 35,000  Level FlightAware
06:02AM 51.6500 -4.3260 95° East 521 600 35,000  Level FlightAware
06:02AM 51.6420 -4.1930 95° East 521 600 35,000  Level FlightAware
06:03AM 51.6340 -4.0490 95° East 521 600 35,000  Level FlightAware
06:04AM 51.6260 -3.9100 95° East 521 600 35,000  Level FlightAware
06:04AM 51.6190 -3.7880 95° East 521 600 35,000  Level FlightAware
06:05AM 51.6100 -3.6550 96° East 521 600 35,000  Level FlightAware
06:05AM 51.6020 -3.5150 95° East 521 600 35,000  Level FlightAware
06:06AM 51.6158 -3.1728 95° East 492 566 35,000  Level FlightAware UK
06:06AM 51.5930 -3.3790 95° East 521 600 35,000  Level FlightAware
06:06AM 51.5851 -3.2531 96° East 522 601 35,000  Level FlightAware ADS-B
06:07AM 51.5755 -3.1064 96° East 521 600 35,000  Level FlightAware ADS-B
06:08AM 51.5675 -2.9887 96° East 519 597 35,000  Level FlightAware ADS-B
06:08AM 51.5597 -2.8720 96° East 518 596 35,000  Level FlightAware ADS-B
06:09AM 51.5516 -2.7540 96° East 517 595 35,000  Level FlightAware ADS-B
06:09AM 51.5435 -2.6388 96° East 517 595 35,000  Level FlightAware ADS-B
06:10AM 51.5353 -2.5223 96° East 516 594 35,000  Level FlightAware ADS-B
06:10AM 51.5267 -2.4030 97° East 516 594 35,000  Level FlightAware ADS-B
06:11AM 51.5180 -2.2800 96° East 516 594 35,000  Level FlightAware ADS-B
06:11AM 51.5092 -2.1614 97° East 517 595 35,000  Level FlightAware ADS-B
06:12AM 51.5006 -2.0452 97° East 517 595 35,000  Level FlightAware ADS-B
06:12AM 51.4918 -1.9308 97° East 518 596 35,000  Level FlightAware ADS-B
06:13AM 51.4827 -1.8151 97° East 518 596 35,000  Level FlightAware ADS-B
06:13AM 51.4736 -1.6998 97° East 519 597 35,000  Level FlightAware ADS-B
06:14AM 51.4642 -1.5784 97° East 521 600 35,000  Level FlightAware ADS-B
06:14AM 51.4544 -1.4568 97° East 522 601 35,000  Level FlightAware ADS-B
06:15AM 51.4448 -1.3390 97° East 524 603 35,000  Level FlightAware ADS-B
06:15AM 51.4350 -1.2195 97° East 526 605 35,000  Level FlightAware ADS-B
06:16AM 51.4249 -1.0971 97° East 527 606 35,000  Level FlightAware ADS-B
06:16AM 51.4148 -0.9772 98° East 528 608 35,000  Level FlightAware ADS-B
06:17AM 51.4046 -0.8574 98° East 529 609 35,000  Level FlightAware ADS-B
06:17AM 51.3945 -0.7392 98° East 529 609 35,000  Level FlightAware ADS-B
06:18AM 51.3840 -0.6194 98° East 530 610 35,000  Level FlightAware ADS-B
06:18AM 51.3739 -0.4995 98° East 530 610 35,000  Level FlightAware ADS-B
06:19AM 51.3640 -0.3799 98° East 531 611 35,000  Level FlightAware ADS-B
06:19AM 51.3542 -0.2603 97° East 529 609 35,000  Level FlightAware ADS-B
06:20AM 51.3439 -0.1351 97° East 531 611 35,000  Level FlightAware ADS-B
06:20AM 51.3332 -0.0094 98° East 530 610 35,000  Level FlightAware ADS-B
06:21AM 51.3217 0.1218 98° East 529 609 35,000  Level FlightAware ADS-B
06:22AM 51.3109 0.2440 98° East 528 608 35,000  Level FlightAware ADS-B
06:22AM 51.3002 0.3613 98° East 528 608 35,000  Level FlightAware ADS-B
06:23AM 51.2893 0.4794 98° East 528 608 35,000  Level FlightAware ADS-B
06:23AM 51.2782 0.5973 99° East 528 608 35,000  Level FlightAware ADS-B
06:24AM 51.2666 0.7200 99° East 527 606 35,000  Level FlightAware ADS-B
06:24AM 51.2530 0.8620 99° East 527 606 35,000  Level FlightAware
06:25AM 51.2453 0.9415 99° East 527 606 35,000  Level FlightAware ADS-B
06:25AM 51.2270 1.1260 99° East 527 606 35,000  Level FlightAware
06:26AM 51.2250 1.4771 99° East 492 566 35,000  Level FlightAware UK
06:26AM 51.2130 1.2720 99° East 527 606 35,000  Level FlightAware
06:27AM 51.2104 1.6162 99° East 492 566 35,000  Level FlightAware UK
06:27AM 51.1990 1.4050 99° East 526 605 35,000  Level FlightAware
06:27AM 51.1750 1.5400 106° East 525 604 35,000  Level FlightAware
06:28AM 51.1450 1.6490 106° East 524 603 35,000  Level FlightAware
06:28AM 51.1497 1.8781 106° East 496 571 35,000  Level FlightAware UK
06:28AM 51.1186 1.9841 106° East 494 568 35,000  Level FlightAware UK
06:28AM 51.1060 1.7860 106° East 522 601 35,000  Level FlightAware
06:29AM 51.0710 1.9060 115° Southeast 521 600 35,000  Level FlightAware
06:30AM 51.0340 2.0340 115° Southeast 518 596 35,000  Level FlightAware
06:30AM 51.0010 2.1450 115° Southeast 517 595 35,000  Level FlightAware
06:31AM 50.9690 2.4837 115° Southeast 490 564 35,000  Level FlightAware UK
06:31AM 50.9640 2.2720 115° Southeast 516 594 35,000  Level FlightAware
06:31AM 50.9330 2.3770 115° Southeast 516 594 35,000  Level FlightAware
06:32AM 50.8920 2.5150 115° Southeast 516 594 35,000  Level FlightAware
06:32AM 50.8640 2.6090 115° Southeast 517 595 35,000  Level FlightAware
06:33AM 50.8220 2.7500 115° Southeast 518 596 35,000  Level FlightAware
06:34AM 50.7910 2.8520 116° Southeast 518 596 35,000  Level FlightAware
06:34AM 50.7540 2.9760 115° Southeast 518 596 35,000  Level FlightAware
06:35AM 50.7200 3.0870 116° Southeast 517 595 35,000  Level FlightAware
06:35AM 50.6850 3.2030 115° Southeast 516 594 35,000  Level FlightAware
06:36AM 50.6430 3.3390 116° Southeast 516 594 35,000  Level FlightAware
06:37AM 50.6070 3.4570 116° Southeast 516 594 35,000  Level FlightAware
06:37AM 50.5740 3.5650 116° Southeast 515 593 35,000  Level FlightAware
06:38AM 50.5370 3.6870 115° Southeast 514 592 35,000  Level FlightAware
06:38AM 50.5020 3.7990 116° Southeast 513 590 35,000  Level FlightAware
06:39AM 50.4640 3.9190 116° Southeast 512 589 35,000  Level FlightAware
06:40AM 50.4260 4.0370 117° Southeast 512 589 35,000  Level FlightAware
06:40AM 50.3870 4.1600 116° Southeast 511 588 35,000  Level FlightAware
06:41AM 50.3520 4.2710 116° Southeast 511 588 35,000  Level FlightAware
06:41AM 50.3140 4.3910 116° Southeast 511 588 35,000  Level FlightAware
06:42AM 50.2537 4.7289 116° Southeast 1 1 35,000  Level FlightAware UK
06:42AM 50.2810 4.4950 116° Southeast 512 589 35,000  Level FlightAware
06:42AM 50.2380 4.6260 117° Southeast 511 588 35,000  Level FlightAware
06:43AM 50.2060 4.7260 117° Southeast 511 588 35,000  Level FlightAware
06:44AM 50.1660 4.8500 117° Southeast 512 589 35,000  Level FlightAware
06:44AM 50.1330 4.9500 117° Southeast 511 588 35,000  Level FlightAware
06:45AM 50.0890 5.0850 117° Southeast 510 587 35,000  Level FlightAware
06:45AM 50.0570 5.1840 117° Southeast 510 587 35,000  Level FlightAware
06:46AM 50.0150 5.3100 117° Southeast 510 587 35,000  Level FlightAware
06:46AM 49.9790 5.4190 117° Southeast 510 587 35,000  Level FlightAware
06:47AM 49.9400 5.5350 118° Southeast 510 587 35,000  Level FlightAware
06:48AM 49.9020 5.6480 118° Southeast 510 587 35,000  Level FlightAware
06:48AM 49.8630 5.7640 118° Southeast 511 588 35,000  Level FlightAware
06:49AM 49.8310 5.8590 118° Southeast 510 587 35,000  Level FlightAware
06:49AM 49.7890 5.9830 118° Southeast 511 588 35,000  Level FlightAware
06:50AM 49.7370 6.1340 118° Southeast 510 587 35,000  Level FlightAware
06:51AM 49.7070 6.2230 118° Southeast 510 587 35,000  Level FlightAware
06:51AM 49.6650 6.3440 118° Southeast 510 587 35,000  Level FlightAware
06:52AM 49.6240 6.4620 118° Southeast 509 586 35,000  Level FlightAware
06:52AM 49.5850 6.5730 118° Southeast 508 585 35,000  Level FlightAware
06:53AM 49.5400 6.6860 122° Southeast 508 585 35,000  Level FlightAware
06:54AM 49.4960 6.7890 123° Southeast 509 586 35,000  Level FlightAware
06:54AM 49.4480 6.8970 124° Southeast 509 586 35,000  Level FlightAware
06:55AM 49.4050 6.9900 125° Southeast 509 586 35,000  Level FlightAware
06:55AM 49.3510 7.1040 126° Southeast 510 587 35,000  Level FlightAware
06:56AM 49.3080 7.1990 125° Southeast 510 587 35,000  Level FlightAware
06:57AM 49.2600 7.2990 126° Southeast 510 587 35,000  Level FlightAware
06:57AM 49.2160 7.3950 125° Southeast 511 588 35,000  Level FlightAware
06:58AM 49.1590 7.5160 126° Southeast 511 588 35,000  Level FlightAware
06:58AM 49.1110 7.6190 125° Southeast 511 588 35,000  Level FlightAware
06:59AM 49.0690 7.7080 126° Southeast 511 588 35,000  Level FlightAware
06:59AM 49.0170 7.8180 126° Southeast 512 589 35,000  Level FlightAware
07:00AM 48.9670 7.9220 126° Southeast 512 589 35,000  Level FlightAware
07:01AM 48.9200 8.0210 126° Southeast 512 589 35,000  Level FlightAware
07:01AM 48.8710 8.1230 126° Southeast 507 583 35,000  Level FlightAware
07:02AM 48.8220 8.2240 126° Southeast 512 589 35,000  Level FlightAware
07:02AM 48.7730 8.3260 126° Southeast 512 589 35,000  Level FlightAware
07:03AM 48.7300 8.4130 127° Southeast 512 589 35,000  Level FlightAware
07:03AM 48.6770 8.5230 126° Southeast 512 589 35,000  Level FlightAware
07:04AM 48.6230 8.6320 127° Southeast 511 588 35,000  Level FlightAware
07:05AM 48.5740 8.7320 126° Southeast 511 588 35,000  Level FlightAware
07:05AM 48.5240 8.8330 127° Southeast 511 588 35,000 60 Level FlightAware
07:06AM 48.4770 8.9270 127° Southeast 513 590 35,100 660 Climbing FlightAware
07:06AM 48.4240 9.0360 126° Southeast 513 590 35,800 1,200 Climbing FlightAware
07:07AM 48.3730 9.1360 127° Southeast 512 589 36,600 1,020 Climbing FlightAware
07:08AM 48.3240 9.2300 128° Southeast 515 593 37,000 300 Climbing FlightAware
07:08AM 48.2640 9.3190 135° Southeast 522 601 37,000  Level FlightAware
07:09AM 48.1970 9.3920 144° Southeast 524 603 37,000  Level FlightAware
07:09AM 48.1310 9.4630 144° Southeast 522 601 37,000  Level FlightAware
07:10AM 48.0680 9.5290 145° Southeast 519 597 37,000  Level FlightAware
07:10AM 47.9990 9.6040 144° Southeast 516 594 37,000  Level FlightAware
07:11AM 47.9270 9.6820 144° Southeast 516 594 37,000  Level FlightAware
07:12AM 47.8630 9.7510 144° Southeast 515 593 37,000  Level FlightAware
07:12AM 47.7950 9.8220 145° Southeast 517 595 37,000  Level FlightAware
07:13AM 47.7180 9.9000 146° Southeast 518 596 37,000  Level FlightAware
07:13AM 47.6540 9.9660 145° Southeast 517 595 37,000  Level FlightAware
07:14AM 47.5810 10.0410 145° Southeast 516 594 37,000  Level FlightAware
07:15AM 47.5230 10.1010 145° Southeast 515 593 37,000  Level FlightAware
07:15AM 47.4310 10.1930 146° Southeast 515 593 37,000  Level FlightAware
07:16AM 47.3570 10.2680 146° Southeast 515 593 37,000  Level FlightAware
07:17AM 47.2830 10.3430 145° Southeast 517 595 37,000  Level FlightAware
07:17AM 47.2160 10.4100 146° Southeast 517 595 37,000  Level FlightAware
07:18AM 47.1520 10.4940 138° Southeast 514 592 37,000  Level FlightAware
07:18AM 47.0930 10.5810 135° Southeast 516 594 37,000  Level FlightAware
07:19AM 47.0390 10.6650 133° Southeast 515 593 37,000  Level FlightAware
07:20AM 46.9710 10.7700 133° Southeast 515 593 37,000  Level FlightAware
07:20AM 46.9210 10.8470 134° Southeast 514 592 37,000  Level FlightAware
07:21AM 46.8660 10.9310 134° Southeast 515 593 37,000  Level FlightAware
07:21AM 46.8050 11.0230 134° Southeast 514 592 37,000  Level FlightAware
07:22AM 46.7460 11.1120 134° Southeast 513 590 37,000  Level FlightAware
07:22AM 46.6850 11.2040 134° Southeast 512 589 37,000  Level FlightAware
07:23AM 46.6310 11.2860 134° Southeast 512 589 37,000  Level FlightAware
07:24AM 46.5710 11.3760 134° Southeast 513 590 37,000  Level FlightAware
07:24AM 46.5100 11.4680 134° Southeast 513 590 37,000  Level FlightAware
07:25AM 46.4530 11.5530 134° Southeast 514 592 37,000  Level FlightAware
07:25AM 46.3930 11.6430 134° Southeast 514 592 37,000  Level FlightAware
07:26AM 46.3450 11.7140 134° Southeast 514 592 37,000  Level FlightAware
07:26AM 46.2850 11.8040 134° Southeast 516 594 37,000  Level FlightAware
07:27AM 46.2230 11.8950 135° Southeast 517 595 37,000  Level FlightAware
07:28AM 46.1470 12.0070 134° Southeast 519 597 37,000  Level FlightAware
07:28AM 46.0840 12.1000 134° Southeast 519 597 37,000  Level FlightAware
07:29AM 46.0030 12.2200 134° Southeast 514 592 37,000  Level FlightAware
07:30AM 45.9420 12.3080 135° Southeast 514 592 37,000  Level FlightAware
07:31AM 45.8760 12.4040 135° Southeast 513 590 37,000  Level FlightAware
07:31AM 45.8140 12.4950 134° Southeast 517 595 37,000  Level FlightAware
07:32AM 45.7490 12.5890 135° Southeast 515 593 37,000  Level FlightAware
07:33AM 45.6670 12.7060 135° Southeast 514 592 37,000  Level FlightAware
07:33AM 45.6160 12.7790 135° Southeast 505 581 37,000  Level FlightAware
07:34AM 45.5580 12.8610 135° Southeast 504 580 37,000  Level FlightAware
07:34AM 45.5030 12.9500 131° Southeast 511 588 37,000  Level FlightAware
07:35AM 45.4540 13.0450 126° Southeast 507 583 37,000  Level FlightAware
07:36AM 45.3960 13.1580 126° Southeast 507 583 37,000  Level FlightAware
07:36AM 45.3410 13.2670 126° Southeast 512 589 37,000  Level FlightAware
07:37AM 45.2980 13.3480 127° Southeast 513 590 37,000  Level FlightAware
07:37AM 45.2520 13.4360 127° Southeast 513 590 37,000  Level FlightAware
07:38AM 45.1960 13.5420 127° Southeast 514 592 37,000  Level FlightAware
07:38AM 45.1530 13.6240 127° Southeast 514 592 37,000  Level FlightAware
07:39AM 45.1110 13.7040 127° Southeast 515 593 37,000  Level FlightAware
07:40AM 45.0540 13.8120 127° Southeast 511 588 37,000  Level FlightAware
07:40AM 45.0140 13.8860 127° Southeast 512 589 37,000  Level FlightAware
07:41AM 44.9580 13.9900 127° Southeast 518 596 37,000  Level FlightAware
07:41AM 44.9080 14.0830 127° Southeast 518 596 37,000  Level FlightAware
07:42AM 44.8520 14.1890 127° Southeast 518 596 37,000  Level FlightAware
07:42AM 44.8120 14.2630 127° Southeast 519 597 37,000  Level FlightAware
07:43AM 44.7560 14.3670 127° Southeast 515 593 37,000  Level FlightAware
07:44AM 44.6980 14.4750 127° Southeast 517 595 37,000  Level FlightAware
07:44AM 44.6530 14.5580 127° Southeast 518 596 37,000  Level FlightAware
07:45AM 44.6050 14.6460 127° Southeast 521 600 37,000  Level FlightAware
07:45AM 44.5550 14.7390 127° Southeast 527 606 37,000  Level FlightAware
07:46AM 44.5010 14.8380 127° Southeast 528 608 37,000  Level FlightAware
07:47AM 44.4410 14.9380 130° Southeast 521 600 37,000  Level FlightAware
07:47AM 44.3660 15.0560 132° Southeast 528 608 37,000  Level FlightAware
07:48AM 44.3050 15.1520 132° Southeast 530 610 37,000  Level FlightAware
07:49AM 44.2500 15.2390 131° Southeast 531 611 37,000  Level FlightAware
07:49AM 44.1760 15.3550 132° Southeast 533 613 37,000  Level FlightAware
07:50AM 44.1330 15.4210 132° Southeast 534 615 37,000  Level FlightAware
07:50AM 44.0670 15.5270 131° Southeast 538 619 37,000  Level FlightAware
07:51AM 44.0080 15.6210 131° Southeast 542 624 37,000  Level FlightAware
07:51AM 43.9650 15.7040 126° Southeast 543 625 37,000  Level FlightAware
07:52AM 43.9070 15.8160 126° Southeast 552 635 37,000  Level FlightAware
07:53AM 43.8530 15.9180 126° Southeast 551 634 37,000  Level FlightAware
07:53AM 43.7860 16.0450 126° Southeast 562 647 37,000  Level FlightAware
07:54AM 43.7300 16.1460 127° Southeast 566 651 37,000  Level FlightAware
07:55AM 43.6790 16.2400 127° Southeast 567 652 37,000  Level FlightAware
07:55AM 43.6270 16.3350 127° Southeast 568 654 37,000  Level FlightAware
07:56AM 43.5610 16.4540 127° Southeast 569 655 37,000  Level FlightAware
07:56AM 43.5100 16.5470 127° Southeast 569 655 37,000  Level FlightAware
07:57AM 43.4520 16.6510 128° Southeast 570 656 37,000  Level FlightAware
07:57AM 43.4000 16.7460 127° Southeast 570 656 37,000  Level FlightAware
07:58AM 43.3420 16.8500 127° Southeast 570 656 37,000  Level FlightAware
07:59AM 43.2900 16.9440 127° Southeast 570 656 37,000  Level FlightAware
07:59AM 43.2250 17.0610 127° Southeast 570 656 37,000  Level FlightAware
08:00AM 43.1700 17.1590 128° Southeast 570 656 37,000  Level FlightAware
08:00AM 43.1150 17.2570 128° Southeast 569 655 37,000  Level FlightAware
08:01AM 43.0580 17.3580 128° Southeast 564 649 37,000  Level FlightAware
08:02AM 43.0080 17.4480 127° Southeast 562 647 37,000  Level FlightAware
08:02AM 42.9530 17.5440 128° Southeast 558 642 37,000  Level FlightAware
08:03AM 42.8910 17.6540 128° Southeast 556 640 37,000  Level FlightAware
08:03AM 42.8390 17.7450 128° Southeast 555 639 37,000  Level FlightAware
08:04AM 42.7800 17.8490 128° Southeast 555 639 37,000  Level FlightAware
08:05AM 42.7290 17.9380 128° Southeast 556 640 37,000  Level FlightAware
08:05AM 42.6800 18.0230 128° Southeast 556 640 37,000  Level FlightAware
08:06AM 42.6130 18.1340 129° Southeast 553 636 37,000  Level FlightAware
08:06AM 42.5530 18.2190 134° Southeast 552 635 37,000  Level FlightAware
08:07AM 42.5130 18.2750 134° Southeast 553 636 37,000  Level FlightAware
08:07AM 42.4290 18.3900 135° Southeast 555 639 37,000  Level FlightAware
08:08AM 42.3630 18.4810 134° Southeast 555 639 37,000  Level FlightAware
08:09AM 42.3040 18.5630 134° Southeast 555 639 37,000  Level FlightAware
08:09AM 42.2380 18.6540 134° Southeast 555 639 37,000  Level FlightAware
08:10AM 42.1760 18.7380 135° Southeast 556 640 37,000  Level FlightAware
08:10AM 42.1110 18.8270 135° Southeast 555 639 37,000  Level FlightAware
08:11AM 42.0940 18.8500 135° Southeast 555 639 37,000  Level FlightAware
08:12AM 41.9820 19.0010 135° Southeast 555 639 37,000  Level FlightAware
08:12AM 41.9150 19.0920 135° Southeast 555 639 37,000  Level FlightAware
08:13AM 41.8550 19.1710 136° Southeast 554 638 37,000  Level FlightAware
08:13AM 41.7860 19.2630 135° Southeast 556 640 37,000  Level FlightAware
08:14AM 41.7250 19.3410 136° Southeast 556 640 37,000  Level FlightAware
08:14AM 41.6620 19.4230 136° Southeast 555 639 37,000  Level FlightAware
08:15AM 41.6020 19.5000 136° Southeast 555 639 37,000  Level FlightAware
08:16AM 41.5340 19.5880 136° Southeast 556 640 37,000  Level FlightAware
08:16AM 41.4660 19.6760 136° Southeast 556 640 37,000  Level FlightAware
08:17AM 41.3960 19.7660 136° Southeast 557 641 37,000  Level FlightAware
08:17AM 41.3400 19.8360 137° Southeast 558 642 37,000  Level FlightAware
08:18AM 41.2730 19.9210 136° Southeast 555 639 37,000  Level FlightAware
08:19AM 41.2110 20.0000 136° Southeast 555 639 37,000  Level FlightAware
08:19AM 41.1490 20.0790 136° Southeast 554 638 37,000  Level FlightAware
08:20AM 41.0750 20.1720 137° Southeast 553 636 37,000  Level FlightAware
08:20AM 41.0160 20.2460 137° Southeast 553 636 37,000  Level FlightAware
08:21AM 40.9450 20.3350 137° Southeast 553 636 37,000  Level FlightAware
08:22AM 40.8670 20.4320 137° Southeast 552 635 37,000  Level FlightAware
08:22AM 40.8050 20.5100 136° Southeast 550 633 37,000  Level FlightAware
08:23AM 40.7400 20.5900 137° Southeast 549 632 37,000  Level FlightAware
08:23AM 40.6710 20.6750 137° Southeast 545 627 37,000  Level FlightAware
08:24AM 40.6120 20.7480 137° Southeast 536 617 37,000  Level FlightAware
08:25AM 40.5430 20.8330 137° Southeast 531 611 37,000  Level FlightAware
08:25AM 40.4860 20.9050 136° Southeast 529 609 37,000 60 Level FlightAware
08:26AM 40.4230 20.9810 137° Southeast 530 610 37,100 840 Climbing FlightAware
08:26AM 40.3660 21.0510 137° Southeast 519 597 38,000 1,680 Climbing FlightAware
08:27AM 40.3010 21.1300 137° Southeast 508 585 39,000 780 Climbing FlightAware
08:27AM 40.2400 21.2040 137° Southeast 515 593 39,000  Level FlightAware
08:28AM 40.1760 21.2810 137° Southeast 515 593 39,000  Level FlightAware
08:29AM 40.1170 21.3520 137° Southeast 515 593 39,000  Level FlightAware
08:29AM 40.0580 21.4230 137° Southeast 517 595 39,000  Level FlightAware
08:30AM 39.9910 21.5040 137° Southeast 519 597 39,000  Level FlightAware
08:30AM 39.9340 21.5720 138° Southeast 520 598 39,000  Level FlightAware
08:31AM 39.8630 21.6570 137° Southeast 521 600 39,000  Level FlightAware
08:32AM 39.8050 21.7250 138° Southeast 520 598 39,000  Level FlightAware
08:32AM 39.7410 21.8010 138° Southeast 522 601 39,000  Level FlightAware
08:33AM 39.6840 21.8690 137° Southeast 521 600 39,000  Level FlightAware
08:33AM 39.6200 21.9430 138° Southeast 520 598 39,000  Level FlightAware
08:34AM 39.5550 22.0190 138° Southeast 521 600 39,000  Level FlightAware
08:34AM 39.4920 22.0930 138° Southeast 521 600 39,000  Level FlightAware
08:35AM 39.4330 22.1620 138° Southeast 519 597 39,000  Level FlightAware
08:36AM 39.3690 22.2370 138° Southeast 519 597 39,000  Level FlightAware
08:36AM 39.2910 22.3270 138° Southeast 520 598 39,000  Level FlightAware
08:37AM 39.2240 22.4030 139° Southeast 520 598 39,000  Level FlightAware
08:37AM 39.1690 22.4660 138° Southeast 520 598 39,000  Level FlightAware
08:38AM 39.1030 22.5420 138° Southeast 521 600 39,000  Level FlightAware
08:39AM 39.0510 22.6020 138° Southeast 522 601 39,000  Level FlightAware
08:39AM 38.9800 22.6820 139° Southeast 527 606 39,000  Level FlightAware
08:40AM 38.9070 22.7650 138° Southeast 529 609 39,000  Level FlightAware
08:40AM 38.8460 22.8330 139° Southeast 531 611 39,000  Level FlightAware
08:41AM 38.7800 22.9080 138° Southeast 532 612 39,000  Level FlightAware
08:42AM 38.7190 22.9760 139° Southeast 534 615 39,000  Level FlightAware
08:42AM 38.6560 23.0460 139° Southeast 535 616 39,000  Level FlightAware
08:43AM 38.5850 23.1250 139° Southeast 538 619 39,000  Level FlightAware
08:43AM 38.5100 23.2090 139° Southeast 536 617 39,000  Level FlightAware
08:44AM 38.4530 23.2720 139° Southeast 539 620 39,000  Level FlightAware
08:45AM 38.3850 23.3480 139° Southeast 542 624 39,000  Level FlightAware
08:45AM 38.3080 23.4330 139° Southeast 550 633 39,000  Level FlightAware
08:46AM 38.2530 23.4940 139° Southeast 553 636 39,000  Level FlightAware
08:46AM 38.1630 23.5930 139° Southeast 555 639 39,000  Level FlightAware
08:47AM 38.0950 23.6690 139° Southeast 555 639 39,000  Level FlightAware
08:48AM 38.0170 23.7540 139° Southeast 555 639 39,000  Level FlightAware
08:48AM 37.9420 23.8360 139° Southeast 551 634 39,000  Level FlightAware
08:49AM 37.8880 23.9100 133° Southeast 562 647 39,000  Level FlightAware
08:49AM 37.8310 24.0120 125° Southeast 561 646 39,000  Level FlightAware
08:50AM 37.7770 24.1060 126° Southeast 559 643 39,000  Level FlightAware
08:51AM 37.7190 24.2040 127° Southeast 558 642 39,000  Level FlightAware
08:51AM 37.6710 24.2830 127° Southeast 558 642 39,000  Level FlightAware
08:52AM 37.6220 24.3700 125° Southeast 560 644 39,000  Level FlightAware
08:52AM 37.5640 24.4750 125° Southeast 559 643 39,000  Level FlightAware
08:53AM 37.5090 24.5730 125° Southeast 558 642 39,000  Level FlightAware
08:54AM 37.4570 24.6660 125° Southeast 556 640 39,000  Level FlightAware
08:54AM 37.4040 24.7590 126° Southeast 554 638 39,000  Level FlightAware
08:55AM 37.3520 24.8510 125° Southeast 552 635 39,000  Level FlightAware
08:55AM 37.3000 24.9440 125° Southeast 552 635 39,000  Level FlightAware
08:56AM 37.2450 25.0400 126° Southeast 551 634 39,000  Level FlightAware
08:57AM 37.1970 25.1240 126° Southeast 549 632 39,000  Level FlightAware
08:57AM 37.1420 25.2200 126° Southeast 548 631 39,000  Level FlightAware
08:58AM 37.0940 25.3040 126° Southeast 548 631 39,000  Level FlightAware
08:58AM 37.0430 25.3930 126° Southeast 548 631 39,000  Level FlightAware
08:59AM 36.9910 25.4830 126° Southeast 550 633 39,000  Level FlightAware
08:59AM 36.9380 25.5760 125° Southeast 549 632 39,000  Level FlightAware
09:00AM 36.8820 25.6730 126° Southeast 550 633 39,000  Level FlightAware
09:01AM 36.8350 25.7550 126° Southeast 551 634 39,000  Level FlightAware
09:01AM 36.7810 25.8500 125° Southeast 552 635 39,000  Level FlightAware
09:02AM 36.7270 25.9420 126° Southeast 553 636 39,000  Level FlightAware
09:02AM 36.6790 26.0250 126° Southeast 553 636 39,000  Level FlightAware
09:03AM 36.6340 26.1050 125° Southeast 555 639 39,000  Level FlightAware
09:04AM 36.5770 26.2180 122° Southeast 556 640 39,000  Level FlightAware
09:04AM 36.5310 26.3110 122° Southeast 555 639 39,000  Level FlightAware
09:05AM 36.4830 26.4060 122° Southeast 554 638 39,000  Level FlightAware
09:05AM 36.4400 26.4940 121° Southeast 555 639 39,000  Level FlightAware
09:06AM 36.3910 26.5910 122° Southeast 555 639 39,000  Level FlightAware
09:06AM 36.3400 26.6920 122° Southeast 554 638 39,000  Level FlightAware
09:07AM 36.2900 26.7920 122° Southeast 554 638 39,000  Level FlightAware
09:08AM 36.2470 26.8780 122° Southeast 554 638 39,000  Level FlightAware
09:08AM 36.1970 26.9770 122° Southeast 553 636 39,000  Level FlightAware
09:09AM 36.1430 27.0840 122° Southeast 553 636 39,000  Level FlightAware
09:09AM 36.1060 27.1570 122° Southeast 553 636 39,000  Level FlightAware
09:10AM 36.0470 27.2720 122° Southeast 550 633 39,000  Level FlightAware
09:10AM 36.0160 27.3330 122° Southeast 549 632 39,000  Level FlightAware
09:11AM 35.9590 27.4460 122° Southeast 549 632 39,000  Level FlightAware
09:12AM 35.9170 27.5300 122° Southeast 549 632 39,000  Level FlightAware
09:15AM 35.7258 27.9273 121° Southeast  Level Estimated
09:15AM 35.6770 27.9940 121° Southeast 545 627 39,000  Level FlightAware
09:15AM 35.6250 28.0940 123° Southeast 547 629 39,000  Level FlightAware
09:16AM 35.5820 28.1770 122° Southeast 547 629 39,000  Level FlightAware
09:16AM 35.5340 28.2700 122° Southeast 548 631 39,000  Level FlightAware
09:17AM 35.4850 28.3660 122° Southeast 549 632 39,000  Level FlightAware
09:18AM 35.4110 28.5100 122° Southeast 549 632 39,000  Level FlightAware
09:18AM 35.3730 28.5840 122° Southeast 548 631 39,000  Level FlightAware
09:19AM 35.3110 28.7030 123° Southeast 548 631 39,000  Level FlightAware
09:20AM 35.2680 28.7870 122° Southeast 548 631 39,000  Level FlightAware
09:20AM 35.2230 28.8740 122° Southeast 548 631 39,000  Level FlightAware
09:21AM 35.1820 28.9550 122° Southeast 548 631 39,000  Level FlightAware
09:22AM 35.1400 29.0380 122° Southeast 548 631 39,000  Level FlightAware
09:22AM 35.0970 29.1200 123° Southeast 548 631 39,000  Level FlightAware
09:23AM 35.0610 29.1920 121° Southeast 548 631 39,000  Level FlightAware
09:23AM 34.9710 29.3470 125° Southeast 541 623 39,000  Level FlightAware
09:24AM 34.9280 29.4280 123° Southeast 541 623 39,000  Level FlightAware
09:24AM 34.8820 29.5140 123° Southeast 540 621 39,000  Level FlightAware
09:25AM 34.8260 29.6190 123° Southeast 539 620 39,000  Level FlightAware
09:26AM 34.7860 29.6920 124° Southeast 539 620 39,000  Level FlightAware
09:26AM 34.7150 29.8280 122° Southeast 539 620 39,000  Level FlightAware
09:27AM 34.6710 29.9140 122° Southeast 539 620 39,000  Level FlightAware
09:28AM 34.6020 30.0590 120° Southeast 542 624 39,000  Level FlightAware
09:29AM 34.5490 30.1740 119° Southeast 543 625 39,000  Level FlightAware
09:29AM 34.5150 30.2460 120° Southeast 543 625 39,000  Level FlightAware
09:30AM 34.4670 30.3490 119° Southeast 543 625 39,000  Level FlightAware
09:30AM 34.4230 30.4420 120° Southeast 542 624 39,000  Level FlightAware
09:31AM 34.3790 30.5370 119° Southeast 546 628 39,000  Level FlightAware
09:32AM 34.3300 30.6390 120° Southeast 545 627 39,000  Level FlightAware
09:32AM 34.2720 30.7610 120° Southeast 544 626 39,000  Level FlightAware
09:33AM 34.2140 30.8810 120° Southeast 542 624 39,000  Level FlightAware
09:34AM 34.1770 30.9580 120° Southeast 542 624 39,000  Level FlightAware
09:34AM 34.1330 31.0510 120° Southeast 536 617 39,000  Level FlightAware
09:35AM 34.0910 31.1390 120° Southeast 536 617 39,000  Level FlightAware
09:35AM 34.0460 31.2320 120° Southeast 535 616 39,000  Level FlightAware
09:36AM 34.0010 31.3250 120° Southeast 534 615 39,000  Level FlightAware
09:36AM 33.9560 31.4170 121° Southeast 534 615 39,000  Level FlightAware
09:37AM 33.9120 31.5090 120° Southeast 538 619 39,000  Level FlightAware
09:38AM 33.8680 31.6000 120° Southeast 537 618 39,000  Level FlightAware
09:38AM 33.8250 31.6870 121° Southeast 537 618 39,000  Level FlightAware
09:39AM 33.7800 31.7800 120° Southeast 536 617 39,000  Level FlightAware
09:39AM 33.7370 31.8660 121° Southeast 535 616 39,000  Level FlightAware
09:40AM 33.6840 31.9730 121° Southeast 535 616 39,000  Level FlightAware
09:41AM 33.6460 32.0490 121° Southeast 534 615 39,000 -120 Level FlightAware
09:41AM 33.5900 32.1630 121° Southeast 533 613 38,900 -1,140 Descending FlightAware
09:42AM 33.5430 32.2560 121° Southeast 534 615 37,500 -2,340 Descending FlightAware
09:43AM 33.4900 32.3620 121° Southeast 536 617 35,700 -2,100 Descending FlightAware
09:43AM 33.4430 32.4560 121° Southeast 525 604 34,700 -1,800 Descending FlightAware
09:44AM 33.3910 32.5590 121° Southeast 518 596 33,500 -1,620 Descending FlightAware
09:45AM 33.3470 32.6450 121° Southeast 511 588 32,600 -1,560 Descending FlightAware
09:45AM 33.2960 32.7450 121° Southeast 502 578 31,400 -1,740 Descending FlightAware
09:46AM 33.2340 32.8660 121° Southeast 489 563 30,100 -1,740 Descending FlightAware
09:47AM 33.1870 32.9580 121° Southeast 474 545 29,000 -1,980 Descending FlightAware
09:47AM 33.1440 33.0420 121° Southeast 462 532 27,700 -1,860 Descending FlightAware
09:48AM 33.1080 33.1120 122° Southeast 448 516 26,800 -1,800 Descending FlightAware
09:48AM 33.0760 33.1740 122° Southeast 441 507 25,800 -2,460 Descending FlightAware
09:49AM 33.0320 33.2590 122° Southeast 446 513 23,900 -2,460 Descending FlightAware
09:50AM 32.9960 33.3290 122° Southeast 431 496 22,800 -1,680 Descending FlightAware
09:50AM 32.9600 33.3970 122° Southeast 409 471 22,000 -1,380 Descending FlightAware
09:51AM 32.9270 33.4600 122° Southeast 377 434 21,300 -1,440 Descending FlightAware
09:51AM 32.8940 33.5240 122° Southeast 356 410 20,300 -1,740 Descending FlightAware
09:52AM 32.8670 33.5760 122° Southeast 345 397 19,300 -1,980 Descending FlightAware
09:53AM 32.8340 33.6370 123° Southeast 336 387 18,000 -1,920 Descending FlightAware
09:53AM 32.8070 33.6900 121° Southeast 329 379 17,000 -1,800 Descending FlightAware
09:54AM 32.7800 33.7400 123° Southeast 323 372 16,000 -1,800 Descending FlightAware
09:54AM 32.7570 33.7890 119° Southeast 319 367 15,100 -1,680 Descending FlightAware
09:54AM 32.7540 33.8090 100° East 318 366 14,800 -1,320 Descending FlightAware
09:55AM 32.7520 33.8710 92° East 311 358 14,000 -1,440 Descending FlightAware
09:56AM 32.7490 33.9230 94° East 308 354 13,200 -1,500 Descending FlightAware
09:56AM 32.7460 33.9880 93° East 303 349 12,300 -1,500 Descending FlightAware
09:57AM 32.7400 34.0320 99° East 302 348 11,600 -1,680 Descending FlightAware
09:57AM 32.7260 34.0570 124° Southeast 299 344 11,100 -1,500 Descending FlightAware
09:58AM 32.6880 34.0900 144° Southeast 296 341 10,300 -1,440 Descending FlightAware
09:58AM 32.6630 34.1090 147° Southeast 293 337 9,800 -1,380 Descending FlightAware
09:58AM 32.6430 34.1250 146° Southeast 292 336 9,400 -1,260 Descending FlightAware
09:58AM 32.6270 34.1380 146° Southeast 291 335 9,100 -1,320 Descending FlightAware
09:59AM 32.6020 34.1580 146° Southeast 287 330 8,600 -1,200 Descending FlightAware
09:59AM 32.5850 34.1720 145° Southeast 285 328 8,300 -420 Descending FlightAware
10:00AM 32.5610 34.1920 145° Southeast 285 328 8,300  Level FlightAware
10:00AM 32.5390 34.2100 145° Southeast 285 328 8,300  Level FlightAware
10:00AM 32.5170 34.2290 144° Southeast 285 328 8,300 -2,040 Level FlightAware
10:01AM 32.4720 34.2640 147° Southeast 277 319 6,400 -780 Descending FlightAware
10:04AM 32.1791 34.5535 126° Southeast  Level FlightAware Approximate
10:04AM 32.2910 34.4700 126° Southeast 5,200  Level FlightAware
10:04AM 32.2790 34.4930 122° Southeast 278 320 5,200  Level FlightAware
10:05AM 32.2580 34.5310 123° Southeast 278 320 5,200  Level FlightAware
10:05AM 32.2400 34.5610 125° Southeast 278 320 5,200  Level FlightAware
10:06AM 32.2310 34.5760 125° Southeast 276 318 5,200  Level FlightAware
10:06AM 32.2100 34.6130 124° Southeast 240 276 5,200  Level FlightAware
10:07AM 32.1950 34.6380 125° Southeast 235 270 5,200  Level FlightAware
10:07AM 32.1830 34.6600 123° Southeast 235 270 5,200  Level FlightAware
10:07AM 32.1700 34.6770 132° Southeast 236 272 5,200 -300 Level FlightAware
10:08AM 32.1460 34.7030 137° Southeast 219 252 5,000 -360 Descending FlightAware
10:08AM 32.1320 34.7190 136° Southeast 216 249 4,900 -360 Descending FlightAware
10:08AM 32.1220 34.7300 137° Southeast 216 249 4,800 -840 Descending FlightAware
10:08AM 32.1070 34.7460 138° Southeast 217 250 4,500 -1,320 Descending FlightAware
10:09AM 32.0920 34.7640 135° Southeast 220 253 3,900 -1,620 Descending FlightAware
10:09AM 32.0830 34.7860 116° Southeast 215 247 3,400 -720 Descending FlightAware
10:10AM 32.0780 34.8130 102° East 215 247 3,400 -1,020 Level FlightAware
10:10AM 32.0870 34.8150 11° North 188 216 2,900 -1,020 Descending FlightAware
10:10AM 32.0940 34.8490 76° East 186 214 2,700 -360 Descending FlightAware
10:13AM 32.0095 34.8769 125° Southeast  Level Estimated
10:14AM 32.0095 34.8769 125° Southeast  Level Estimated